This is the latest recevied weather packets stored in our database for station/object EA1FWM-13. If no packets are shown the sender has not sent any weather packets the latest 10 day(s).
| Time | Temp. | Humidity | Pressure | Rain* | Wind** | Luminosity | Snow |
|---|---|---|---|---|---|---|---|
| 1777058479 | 18.89° C | 58% | 1020.5 hPa | - | - | - | - |
| 1777057578 | 19.44° C | 57% | 1020.1 hPa | - | - | - | - |
| 1777056677 | 19.44° C | 56% | 1019.8 hPa | - | - | - | - |
| 1777055776 | 20° C | 55% | 1019.7 hPa | - | - | - | - |
| 1777054875 | 20.56° C | 55% | 1019.5 hPa | - | - | - | - |
| 1777053975 | 20.56° C | 55% | 1019.3 hPa | - | - | - | - |
| 1777053073 | 21.11° C | 55% | 1019.1 hPa | - | - | - | - |
| 1777052172 | 22.78° C | 51% | 1019.1 hPa | - | - | - | - |
| 1777051271 | 21.67° C | 53% | 1018.9 hPa | - | - | - | - |
| 1777044534 | 13.89° C | 69% | 1016.7 hPa | - | - | - | - |
| 1777043633 | 13.89° C | 69% | 1016.7 hPa | - | - | - | - |
| 1777042733 | 13.89° C | 69% | 1016.7 hPa | - | - | - | - |
| 1777041833 | 13.89° C | 69% | 1016.7 hPa | - | - | - | - |
| 1777040933 | 13.89° C | 69% | 1016.7 hPa | - | - | - | - |
| 1777040033 | 13.89° C | 69% | 1016.7 hPa | - | - | - | - |
| 1777039132 | 13.89° C | 69% | 1016.7 hPa | - | - | - | - |
| 1777038232 | 13.89° C | 69% | 1016.7 hPa | - | - | - | - |
| 1777037332 | 13.89° C | 69% | 1016.7 hPa | - | - | - | - |
| 1777036432 | 13.89° C | 69% | 1016.7 hPa | - | - | - | - |
| 1777035531 | 13.89° C | 69% | 1016.7 hPa | - | - | - | - |
| 1777034631 | 13.89° C | 69% | 1016.7 hPa | - | - | - | - |
| 1777033731 | 13.89° C | 69% | 1016.7 hPa | - | - | - | - |
| 1777032831 | 13.89° C | 69% | 1016.7 hPa | - | - | - | - |
| 1777031931 | 13.89° C | 69% | 1016.7 hPa | - | - | - | - |
| 1777031030 | 13.89° C | 69% | 1016.7 hPa | - | - | - | - |
* Rain since midnight (hover to see other rain measurements)
** Current wind speed in m/s (hover to see current wind gust speed)